sensor_id;sensor_type;location;lat;lon;timestamp;temperature;humidity
21950;DHT22;11139;51.284;7.226;2023-07-29T00:01:57;19.30;99.90
21950;DHT22;11139;51.284;7.226;2023-07-29T00:04:23;19.30;99.90
21950;DHT22;11139;51.284;7.226;2023-07-29T00:06:48;19.30;99.90
21950;DHT22;11139;51.284;7.226;2023-07-29T00:09:14;19.30;99.90
21950;DHT22;11139;51.284;7.226;2023-07-29T00:11:39;19.30;99.90
21950;DHT22;11139;51.284;7.226;2023-07-29T00:14:05;19.30;99.90
21950;DHT22;11139;51.284;7.226;2023-07-29T00:16:30;19.30;99.90
21950;DHT22;11139;51.284;7.226;2023-07-29T00:18:56;19.30;99.90
21950;DHT22;11139;51.284;7.226;2023-07-29T00:21:21;19.30;99.90
21950;DHT22;11139;51.284;7.226;2023-07-29T00:23:47;19.30;99.90
21950;DHT22;11139;51.284;7.226;2023-07-29T00:26:12;19.30;99.90
21950;DHT22;11139;51.284;7.226;2023-07-29T00:28:38;19.30;99.90
21950;DHT22;11139;51.284;7.226;2023-07-29T00:31:03;19.20;99.90
21950;DHT22;11139;51.284;7.226;2023-07-29T00:33:29;19.20;99.90
21950;DHT22;11139;51.284;7.226;2023-07-29T00:35:54;19.20;99.90
21950;DHT22;11139;51.284;7.226;2023-07-29T00:38:20;19.30;99.90
21950;DHT22;11139;51.284;7.226;2023-07-29T00:40:45;19.20;99.90
21950;DHT22;11139;51.284;7.226;2023-07-29T00:43:11;19.20;99.90
21950;DHT22;11139;51.284;7.226;2023-07-29T00:45:36;19.20;99.90
21950;DHT22;11139;51.284;7.226;2023-07-29T00:48:02;19.20;99.90
21950;DHT22;11139;51.284;7.226;2023-07-29T00:50:28;19.20;99.90
21950;DHT22;11139;51.284;7.226;2023-07-29T00:52:56;19.20;99.90
21950;DHT22;11139;51.284;7.226;2023-07-29T00:55:22;19.20;99.90
21950;DHT22;11139;51.284;7.226;2023-07-29T00:57:48;19.20;99.90
21950;DHT22;11139;51.284;7.226;2023-07-29T01:00:15;19.20;99.90
21950;DHT22;11139;51.284;7.226;2023-07-29T01:02:42;19.20;99.90
21950;DHT22;11139;51.284;7.226;2023-07-29T01:05:07;19.20;99.90
21950;DHT22;11139;51.284;7.226;2023-07-29T01:07:44;19.20;99.90
21950;DHT22;11139;51.284;7.226;2023-07-29T01:15:33;19.20;99.90
21950;DHT22;11139;51.284;7.226;2023-07-29T01:18:05;19.20;99.90
21950;DHT22;11139;51.284;7.226;2023-07-29T01:20:32;19.20;99.90
21950;DHT22;11139;51.284;7.226;2023-07-29T01:22:58;19.20;99.90
21950;DHT22;11139;51.284;7.226;2023-07-29T01:25:23;19.20;99.90
21950;DHT22;11139;51.284;7.226;2023-07-29T01:27:49;19.20;99.90
21950;DHT22;11139;51.284;7.226;2023-07-29T01:30:17;19.20;99.90
21950;DHT22;11139;51.284;7.226;2023-07-29T01:32:43;19.20;99.90
21950;DHT22;11139;51.284;7.226;2023-07-29T01:35:24;19.20;99.90
21950;DHT22;11139;51.284;7.226;2023-07-29T01:37:53;19.20;99.90
21950;DHT22;11139;51.284;7.226;2023-07-29T01:40:21;19.20;99.90
21950;DHT22;11139;51.284;7.226;2023-07-29T01:42:47;19.20;99.90
21950;DHT22;11139;51.284;7.226;2023-07-29T01:45:13;19.20;99.90
21950;DHT22;11139;51.284;7.226;2023-07-29T01:47:38;19.20;99.90
21950;DHT22;11139;51.284;7.226;2023-07-29T01:50:06;19.20;99.90
21950;DHT22;11139;51.284;7.226;2023-07-29T01:52:32;19.20;99.90
21950;DHT22;11139;51.284;7.226;2023-07-29T01:54:58;19.20;99.90
21950;DHT22;11139;51.284;7.226;2023-07-29T01:57:23;19.20;99.90
21950;DHT22;11139;51.284;7.226;2023-07-29T01:59:48;19.20;99.90
21950;DHT22;11139;51.284;7.226;2023-07-29T02:02:14;19.20;99.90
21950;DHT22;11139;51.284;7.226;2023-07-29T02:04:39;19.20;99.90
21950;DHT22;11139;51.284;7.226;2023-07-29T02:07:05;19.10;99.90
21950;DHT22;11139;51.284;7.226;2023-07-29T02:09:31;19.10;99.90
21950;DHT22;11139;51.284;7.226;2023-07-29T02:11:57;19.10;99.90
21950;DHT22;11139;51.284;7.226;2023-07-29T02:14:22;19.10;99.90
21950;DHT22;11139;51.284;7.226;2023-07-29T02:16:48;19.20;99.90
21950;DHT22;11139;51.284;7.226;2023-07-29T02:19:14;19.10;99.90
21950;DHT22;11139;51.284;7.226;2023-07-29T02:21:40;19.10;99.90
21950;DHT22;11139;51.284;7.226;2023-07-29T02:24:05;19.10;99.90
21950;DHT22;11139;51.284;7.226;2023-07-29T02:26:31;19.10;99.90
21950;DHT22;11139;51.284;7.226;2023-07-29T02:28:56;19.10;99.90
21950;DHT22;11139;51.284;7.226;2023-07-29T02:31:22;19.10;99.90
21950;DHT22;11139;51.284;7.226;2023-07-29T02:33:48;19.10;99.90
21950;DHT22;11139;51.284;7.226;2023-07-29T02:36:14;19.10;99.90
21950;DHT22;11139;51.284;7.226;2023-07-29T02:38:40;19.10;99.90
21950;DHT22;11139;51.284;7.226;2023-07-29T02:41:06;19.10;99.90
21950;DHT22;11139;51.284;7.226;2023-07-29T02:43:31;19.10;99.90
21950;DHT22;11139;51.284;7.226;2023-07-29T02:45:57;19.10;99.90
21950;DHT22;11139;51.284;7.226;2023-07-29T02:48:23;19.10;99.90
21950;DHT22;11139;51.284;7.226;2023-07-29T02:50:48;19.10;99.90
21950;DHT22;11139;51.284;7.226;2023-07-29T02:53:14;19.10;99.90
21950;DHT22;11139;51.284;7.226;2023-07-29T02:55:39;19.10;99.90
21950;DHT22;11139;51.284;7.226;2023-07-29T02:58:06;19.10;99.90
21950;DHT22;11139;51.284;7.226;2023-07-29T03:00:31;19.10;99.90
21950;DHT22;11139;51.284;7.226;2023-07-29T03:02:57;19.10;99.90
21950;DHT22;11139;51.284;7.226;2023-07-29T03:05:23;19.00;99.90
21950;DHT22;11139;51.284;7.226;2023-07-29T03:07:48;19.00;99.90
21950;DHT22;11139;51.284;7.226;2023-07-29T03:10:14;19.10;99.90
21950;DHT22;11139;51.284;7.226;2023-07-29T03:12:40;19.00;99.90
21950;DHT22;11139;51.284;7.226;2023-07-29T03:15:06;19.10;99.90
21950;DHT22;11139;51.284;7.226;2023-07-29T03:17:31;19.00;99.90
21950;DHT22;11139;51.284;7.226;2023-07-29T03:19:57;19.10;99.90
21950;DHT22;11139;51.284;7.226;2023-07-29T03:22:22;19.00;99.90
21950;DHT22;11139;51.284;7.226;2023-07-29T03:24:48;19.00;99.90
21950;DHT22;11139;51.284;7.226;2023-07-29T03:27:13;19.00;99.90
21950;DHT22;11139;51.284;7.226;2023-07-29T03:29:41;19.00;99.90
21950;DHT22;11139;51.284;7.226;2023-07-29T03:32:06;19.00;99.90
21950;DHT22;11139;51.284;7.226;2023-07-29T03:34:32;19.00;99.90
21950;DHT22;11139;51.284;7.226;2023-07-29T03:36:58;19.00;99.90
21950;DHT22;11139;51.284;7.226;2023-07-29T03:39:24;19.00;99.90
21950;DHT22;11139;51.284;7.226;2023-07-29T03:41:49;19.10;99.90
21950;DHT22;11139;51.284;7.226;2023-07-29T03:44:15;19.00;99.90
21950;DHT22;11139;51.284;7.226;2023-07-29T03:46:40;19.00;99.90
21950;DHT22;11139;51.284;7.226;2023-07-29T03:49:06;19.00;99.90
21950;DHT22;11139;51.284;7.226;2023-07-29T03:51:31;19.00;99.90
21950;DHT22;11139;51.284;7.226;2023-07-29T03:53:57;19.00;99.90
21950;DHT22;11139;51.284;7.226;2023-07-29T03:56:22;19.00;99.90
21950;DHT22;11139;51.284;7.226;2023-07-29T03:58:48;19.00;99.90
21950;DHT22;11139;51.284;7.226;2023-07-29T04:01:14;19.00;99.90
21950;DHT22;11139;51.284;7.226;2023-07-29T04:03:40;19.00;99.90
21950;DHT22;11139;51.284;7.226;2023-07-29T04:06:05;19.00;99.90
21950;DHT22;11139;51.284;7.226;2023-07-29T04:08:31;19.00;99.90
21950;DHT22;11139;51.284;7.226;2023-07-29T04:10:56;19.00;99.90
21950;DHT22;11139;51.284;7.226;2023-07-29T04:13:22;19.00;99.90
21950;DHT22;11139;51.284;7.226;2023-07-29T04:15:48;19.00;99.90
21950;DHT22;11139;51.284;7.226;2023-07-29T04:18:13;19.00;99.90
21950;DHT22;11139;51.284;7.226;2023-07-29T04:20:39;19.00;99.90
21950;DHT22;11139;51.284;7.226;2023-07-29T04:23:04;19.00;99.90
21950;DHT22;11139;51.284;7.226;2023-07-29T04:25:30;19.00;99.90
21950;DHT22;11139;51.284;7.226;2023-07-29T04:27:55;19.00;99.90
21950;DHT22;11139;51.284;7.226;2023-07-29T04:30:22;19.00;99.90
21950;DHT22;11139;51.284;7.226;2023-07-29T04:32:48;19.00;99.90
21950;DHT22;11139;51.284;7.226;2023-07-29T04:35:14;19.00;99.90
21950;DHT22;11139;51.284;7.226;2023-07-29T04:37:39;19.00;99.90
21950;DHT22;11139;51.284;7.226;2023-07-29T04:40:05;19.00;99.90
21950;DHT22;11139;51.284;7.226;2023-07-29T04:42:31;19.00;99.90
21950;DHT22;11139;51.284;7.226;2023-07-29T04:44:57;19.00;99.90
21950;DHT22;11139;51.284;7.226;2023-07-29T04:47:22;19.00;99.90
21950;DHT22;11139;51.284;7.226;2023-07-29T04:49:48;19.00;99.90
21950;DHT22;11139;51.284;7.226;2023-07-29T04:52:13;19.00;99.90
21950;DHT22;11139;51.284;7.226;2023-07-29T04:54:40;19.00;99.90
21950;DHT22;11139;51.284;7.226;2023-07-29T04:57:05;19.00;99.90
21950;DHT22;11139;51.284;7.226;2023-07-29T04:59:31;19.00;99.90
21950;DHT22;11139;51.284;7.226;2023-07-29T05:01:57;19.00;99.90
21950;DHT22;11139;51.284;7.226;2023-07-29T05:04:22;19.00;99.90
21950;DHT22;11139;51.284;7.226;2023-07-29T05:06:48;19.00;99.90
21950;DHT22;11139;51.284;7.226;2023-07-29T05:09:18;19.00;99.90
21950;DHT22;11139;51.284;7.226;2023-07-29T05:11:44;18.90;99.90
21950;DHT22;11139;51.284;7.226;2023-07-29T05:14:13;18.90;99.90
21950;DHT22;11139;51.284;7.226;2023-07-29T05:16:38;19.00;99.90
21950;DHT22;11139;51.284;7.226;2023-07-29T05:19:04;18.90;99.90
21950;DHT22;11139;51.284;7.226;2023-07-29T05:21:29;18.90;99.90
21950;DHT22;11139;51.284;7.226;2023-07-29T05:23:55;19.00;99.90
21950;DHT22;11139;51.284;7.226;2023-07-29T05:26:21;18.90;99.90
21950;DHT22;11139;51.284;7.226;2023-07-29T05:28:47;18.90;99.90
21950;DHT22;11139;51.284;7.226;2023-07-29T05:31:12;18.90;99.90
21950;DHT22;11139;51.284;7.226;2023-07-29T05:33:38;18.90;99.90
21950;DHT22;11139;51.284;7.226;2023-07-29T05:36:03;18.90;99.90
21950;DHT22;11139;51.284;7.226;2023-07-29T05:38:29;18.90;99.90
21950;DHT22;11139;51.284;7.226;2023-07-29T05:40:54;18.90;99.90
21950;DHT22;11139;51.284;7.226;2023-07-29T05:43:20;18.90;99.90
21950;DHT22;11139;51.284;7.226;2023-07-29T05:45:45;18.90;99.90
21950;DHT22;11139;51.284;7.226;2023-07-29T05:48:11;18.90;99.90
21950;DHT22;11139;51.284;7.226;2023-07-29T05:50:36;18.90;99.90
21950;DHT22;11139;51.284;7.226;2023-07-29T05:53:02;18.90;99.90
21950;DHT22;11139;51.284;7.226;2023-07-29T05:55:27;18.90;99.90
21950;DHT22;11139;51.284;7.226;2023-07-29T05:57:53;18.90;99.90
21950;DHT22;11139;51.284;7.226;2023-07-29T06:00:19;18.90;99.90
21950;DHT22;11139;51.284;7.226;2023-07-29T06:02:44;18.90;99.90
21950;DHT22;11139;51.284;7.226;2023-07-29T06:05:09;18.90;99.90
21950;DHT22;11139;51.284;7.226;2023-07-29T06:07:35;18.90;99.90
21950;DHT22;11139;51.284;7.226;2023-07-29T06:10:00;18.90;99.90
21950;DHT22;11139;51.284;7.226;2023-07-29T06:12:26;18.90;99.90
21950;DHT22;11139;51.284;7.226;2023-07-29T06:14:51;18.90;99.90
21950;DHT22;11139;51.284;7.226;2023-07-29T06:17:17;18.90;99.90
21950;DHT22;11139;51.284;7.226;2023-07-29T06:19:42;18.90;99.90
21950;DHT22;11139;51.284;7.226;2023-07-29T06:22:09;18.80;99.90
21950;DHT22;11139;51.284;7.226;2023-07-29T06:24:34;18.80;99.90
21950;DHT22;11139;51.284;7.226;2023-07-29T06:27:00;18.80;99.90
21950;DHT22;11139;51.284;7.226;2023-07-29T06:29:25;18.80;99.90
21950;DHT22;11139;51.284;7.226;2023-07-29T06:31:51;18.80;99.90
21950;DHT22;11139;51.284;7.226;2023-07-29T06:34:17;18.90;99.90
21950;DHT22;11139;51.284;7.226;2023-07-29T06:36:42;18.80;99.90
21950;DHT22;11139;51.284;7.226;2023-07-29T06:39:08;18.80;99.90
21950;DHT22;11139;51.284;7.226;2023-07-29T06:41:33;18.80;99.90
21950;DHT22;11139;51.284;7.226;2023-07-29T06:43:59;18.80;99.90
21950;DHT22;11139;51.284;7.226;2023-07-29T06:46:24;18.80;99.90
21950;DHT22;11139;51.284;7.226;2023-07-29T06:48:50;18.80;99.90
21950;DHT22;11139;51.284;7.226;2023-07-29T06:51:15;18.80;99.90
21950;DHT22;11139;51.284;7.226;2023-07-29T06:53:41;18.80;99.90
21950;DHT22;11139;51.284;7.226;2023-07-29T06:56:06;18.80;99.90
21950;DHT22;11139;51.284;7.226;2023-07-29T06:58:32;18.80;99.90
21950;DHT22;11139;51.284;7.226;2023-07-29T07:00:57;18.80;99.90
21950;DHT22;11139;51.284;7.226;2023-07-29T07:03:23;18.80;99.90
21950;DHT22;11139;51.284;7.226;2023-07-29T07:05:48;18.70;99.90
21950;DHT22;11139;51.284;7.226;2023-07-29T07:08:15;18.80;99.90
21950;DHT22;11139;51.284;7.226;2023-07-29T07:10:40;18.80;99.90
21950;DHT22;11139;51.284;7.226;2023-07-29T07:13:06;18.70;99.90
21950;DHT22;11139;51.284;7.226;2023-07-29T07:15:31;18.80;99.90
21950;DHT22;11139;51.284;7.226;2023-07-29T07:17:57;18.70;99.90
21950;DHT22;11139;51.284;7.226;2023-07-29T07:20:22;18.70;99.90
21950;DHT22;11139;51.284;7.226;2023-07-29T07:22:48;18.70;99.90
21950;DHT22;11139;51.284;7.226;2023-07-29T07:25:13;18.70;99.90
21950;DHT22;11139;51.284;7.226;2023-07-29T07:27:39;18.70;99.90
21950;DHT22;11139;51.284;7.226;2023-07-29T07:30:04;18.70;99.90
21950;DHT22;11139;51.284;7.226;2023-07-29T07:32:30;18.70;99.90
21950;DHT22;11139;51.284;7.226;2023-07-29T07:34:56;18.70;99.90
21950;DHT22;11139;51.284;7.226;2023-07-29T07:37:21;18.70;99.90
21950;DHT22;11139;51.284;7.226;2023-07-29T07:39:47;18.70;99.90
21950;DHT22;11139;51.284;7.226;2023-07-29T07:42:12;18.70;99.90
21950;DHT22;11139;51.284;7.226;2023-07-29T07:44:38;18.70;99.90
21950;DHT22;11139;51.284;7.226;2023-07-29T07:47:03;18.60;99.90
21950;DHT22;11139;51.284;7.226;2023-07-29T07:49:29;18.60;99.90
21950;DHT22;11139;51.284;7.226;2023-07-29T07:51:54;18.70;99.90
21950;DHT22;11139;51.284;7.226;2023-07-29T07:54:20;18.60;99.90
21950;DHT22;11139;51.284;7.226;2023-07-29T07:56:45;18.70;99.90
21950;DHT22;11139;51.284;7.226;2023-07-29T07:59:11;18.60;99.90
21950;DHT22;11139;51.284;7.226;2023-07-29T08:01:37;18.70;99.90
21950;DHT22;11139;51.284;7.226;2023-07-29T08:04:02;18.70;99.90
21950;DHT22;11139;51.284;7.226;2023-07-29T08:06:28;18.70;99.90
21950;DHT22;11139;51.284;7.226;2023-07-29T08:08:54;18.70;99.90
21950;DHT22;11139;51.284;7.226;2023-07-29T08:11:19;18.70;99.90
21950;DHT22;11139;51.284;7.226;2023-07-29T08:13:45;18.70;99.90
21950;DHT22;11139;51.284;7.226;2023-07-29T08:16:10;18.70;99.90
21950;DHT22;11139;51.284;7.226;2023-07-29T08:18:36;18.70;99.90
21950;DHT22;11139;51.284;7.226;2023-07-29T08:21:01;18.70;99.90
21950;DHT22;11139;51.284;7.226;2023-07-29T08:23:29;18.70;99.90
21950;DHT22;11139;51.284;7.226;2023-07-29T08:25:55;18.70;99.90
21950;DHT22;11139;51.284;7.226;2023-07-29T08:28:22;18.70;99.90
21950;DHT22;11139;51.284;7.226;2023-07-29T08:30:47;18.70;99.90
21950;DHT22;11139;51.284;7.226;2023-07-29T08:33:13;18.70;99.90
21950;DHT22;11139;51.284;7.226;2023-07-29T08:35:38;18.70;99.90
21950;DHT22;11139;51.284;7.226;2023-07-29T08:38:04;18.70;99.90
21950;DHT22;11139;51.284;7.226;2023-07-29T08:40:29;18.70;99.90
21950;DHT22;11139;51.284;7.226;2023-07-29T08:42:56;18.70;99.90
21950;DHT22;11139;51.284;7.226;2023-07-29T08:45:23;18.70;99.90
21950;DHT22;11139;51.284;7.226;2023-07-29T08:47:50;18.70;99.90
21950;DHT22;11139;51.284;7.226;2023-07-29T08:50:17;18.70;99.90
21950;DHT22;11139;51.284;7.226;2023-07-29T08:52:43;18.70;99.90
21950;DHT22;11139;51.284;7.226;2023-07-29T08:55:09;18.70;99.90
21950;DHT22;11139;51.284;7.226;2023-07-29T08:57:35;18.70;99.90
21950;DHT22;11139;51.284;7.226;2023-07-29T09:00:00;18.70;99.90
21950;DHT22;11139;51.284;7.226;2023-07-29T09:02:26;18.70;99.90
21950;DHT22;11139;51.284;7.226;2023-07-29T09:04:52;18.70;99.90
21950;DHT22;11139;51.284;7.226;2023-07-29T09:07:17;18.70;99.90
21950;DHT22;11139;51.284;7.226;2023-07-29T09:09:44;18.70;99.90
21950;DHT22;11139;51.284;7.226;2023-07-29T09:12:09;18.70;99.90
21950;DHT22;11139;51.284;7.226;2023-07-29T09:14:36;18.70;99.90
21950;DHT22;11139;51.284;7.226;2023-07-29T09:17:02;18.70;99.90
21950;DHT22;11139;51.284;7.226;2023-07-29T09:19:27;18.70;99.90
21950;DHT22;11139;51.284;7.226;2023-07-29T09:21:53;18.70;99.90
21950;DHT22;11139;51.284;7.226;2023-07-29T09:24:18;18.70;99.90
21950;DHT22;11139;51.284;7.226;2023-07-29T09:26:49;18.70;99.90
21950;DHT22;11139;51.284;7.226;2023-07-29T09:29:15;18.70;99.90
21950;DHT22;11139;51.284;7.226;2023-07-29T09:31:41;18.70;99.90
21950;DHT22;11139;51.284;7.226;2023-07-29T09:34:06;18.70;99.90
21950;DHT22;11139;51.284;7.226;2023-07-29T09:36:32;18.70;99.90
21950;DHT22;11139;51.284;7.226;2023-07-29T09:38:58;18.80;99.90
21950;DHT22;11139;51.284;7.226;2023-07-29T09:41:24;18.80;99.90
21950;DHT22;11139;51.284;7.226;2023-07-29T09:44:00;18.80;99.90
21950;DHT22;11139;51.284;7.226;2023-07-29T09:46:31;18.70;99.90
21950;DHT22;11139;51.284;7.226;2023-07-29T09:48:57;18.70;99.90
21950;DHT22;11139;51.284;7.226;2023-07-29T09:51:23;18.70;99.90
21950;DHT22;11139;51.284;7.226;2023-07-29T09:53:50;18.70;99.90
21950;DHT22;11139;51.284;7.226;2023-07-29T09:56:15;18.80;99.90
21950;DHT22;11139;51.284;7.226;2023-07-29T09:58:44;18.70;99.90
21950;DHT22;11139;51.284;7.226;2023-07-29T10:01:11;18.80;99.90
21950;DHT22;11139;51.284;7.226;2023-07-29T10:03:36;18.70;99.90
21950;DHT22;11139;51.284;7.226;2023-07-29T10:06:02;18.80;99.90
21950;DHT22;11139;51.284;7.226;2023-07-29T10:08:31;18.70;99.90
21950;DHT22;11139;51.284;7.226;2023-07-29T10:11:06;18.70;99.90
21950;DHT22;11139;51.284;7.226;2023-07-29T10:13:32;18.70;99.90
21950;DHT22;11139;51.284;7.226;2023-07-29T10:15:59;18.80;99.90
21950;DHT22;11139;51.284;7.226;2023-07-29T10:18:27;18.80;99.90
21950;DHT22;11139;51.284;7.226;2023-07-29T10:20:53;18.70;99.90
21950;DHT22;11139;51.284;7.226;2023-07-29T10:23:19;18.70;99.90
21950;DHT22;11139;51.284;7.226;2023-07-29T10:25:47;18.70;99.90
21950;DHT22;11139;51.284;7.226;2023-07-29T10:28:15;18.70;99.90
21950;DHT22;11139;51.284;7.226;2023-07-29T10:30:41;18.70;99.90
21950;DHT22;11139;51.284;7.226;2023-07-29T10:33:07;18.70;99.90
21950;DHT22;11139;51.284;7.226;2023-07-29T10:35:33;18.70;99.90
21950;DHT22;11139;51.284;7.226;2023-07-29T10:37:59;18.70;99.90
21950;DHT22;11139;51.284;7.226;2023-07-29T10:40:25;18.70;99.90
21950;DHT22;11139;51.284;7.226;2023-07-29T10:45:26;18.70;99.90
21950;DHT22;11139;51.284;7.226;2023-07-29T10:48:04;18.70;99.90
21950;DHT22;11139;51.284;7.226;2023-07-29T10:50:30;18.70;99.90
21950;DHT22;11139;51.284;7.226;2023-07-29T10:52:55;18.80;99.90
21950;DHT22;11139;51.284;7.226;2023-07-29T10:55:36;18.80;99.90
21950;DHT22;11139;51.284;7.226;2023-07-29T10:58:10;18.80;99.90
21950;DHT22;11139;51.284;7.226;2023-07-29T11:00:36;18.80;99.90
21950;DHT22;11139;51.284;7.226;2023-07-29T11:03:03;18.80;99.90
21950;DHT22;11139;51.284;7.226;2023-07-29T11:10:43;18.90;99.90
21950;DHT22;11139;51.284;7.226;2023-07-29T11:13:11;18.80;99.90
21950;DHT22;11139;51.284;7.226;2023-07-29T11:15:37;18.90;99.90
21950;DHT22;11139;51.284;7.226;2023-07-29T11:18:03;18.90;99.90
21950;DHT22;11139;51.284;7.226;2023-07-29T11:20:31;18.90;99.90
21950;DHT22;11139;51.284;7.226;2023-07-29T11:22:57;18.90;99.90
21950;DHT22;11139;51.284;7.226;2023-07-29T11:25:24;19.00;99.90
21950;DHT22;11139;51.284;7.226;2023-07-29T11:27:53;19.00;99.90
21950;DHT22;11139;51.284;7.226;2023-07-29T11:30:18;19.00;99.90
21950;DHT22;11139;51.284;7.226;2023-07-29T11:32:44;19.00;99.90
21950;DHT22;11139;51.284;7.226;2023-07-29T11:35:11;19.00;99.90
21950;DHT22;11139;51.284;7.226;2023-07-29T11:37:37;19.00;99.90
21950;DHT22;11139;51.284;7.226;2023-07-29T11:40:03;19.00;99.90
21950;DHT22;11139;51.284;7.226;2023-07-29T11:42:31;19.10;99.90
21950;DHT22;11139;51.284;7.226;2023-07-29T11:44:57;19.10;99.90
21950;DHT22;11139;51.284;7.226;2023-07-29T11:47:23;19.10;99.90
21950;DHT22;11139;51.284;7.226;2023-07-29T11:49:49;19.10;99.90
21950;DHT22;11139;51.284;7.226;2023-07-29T11:52:15;19.10;99.90
21950;DHT22;11139;51.284;7.226;2023-07-29T11:54:44;19.10;99.90
21950;DHT22;11139;51.284;7.226;2023-07-29T11:57:10;19.10;99.90
21950;DHT22;11139;51.284;7.226;2023-07-29T11:59:36;19.00;99.90
21950;DHT22;11139;51.284;7.226;2023-07-29T12:02:02;19.00;99.90
21950;DHT22;11139;51.284;7.226;2023-07-29T12:04:30;19.00;99.90
21950;DHT22;11139;51.284;7.226;2023-07-29T12:06:56;19.00;99.90
21950;DHT22;11139;51.284;7.226;2023-07-29T12:09:21;19.10;99.90
21950;DHT22;11139;51.284;7.226;2023-07-29T12:11:47;19.10;99.90
21950;DHT22;11139;51.284;7.226;2023-07-29T12:14:13;19.20;99.90
21950;DHT22;11139;51.284;7.226;2023-07-29T12:16:42;19.20;99.90
21950;DHT22;11139;51.284;7.226;2023-07-29T12:19:08;19.20;99.90
21950;DHT22;11139;51.284;7.226;2023-07-29T12:21:33;19.20;99.90
21950;DHT22;11139;51.284;7.226;2023-07-29T12:23:59;19.30;99.90
21950;DHT22;11139;51.284;7.226;2023-07-29T12:26:28;19.30;99.90
21950;DHT22;11139;51.284;7.226;2023-07-29T12:28:53;19.40;99.90
21950;DHT22;11139;51.284;7.226;2023-07-29T12:31:19;19.40;99.90
21950;DHT22;11139;51.284;7.226;2023-07-29T12:33:44;19.40;99.90
21950;DHT22;11139;51.284;7.226;2023-07-29T12:36:10;19.50;99.90
21950;DHT22;11139;51.284;7.226;2023-07-29T12:38:35;19.50;99.90
21950;DHT22;11139;51.284;7.226;2023-07-29T12:41:01;19.50;99.90
21950;DHT22;11139;51.284;7.226;2023-07-29T12:43:28;19.50;99.90
21950;DHT22;11139;51.284;7.226;2023-07-29T12:45:54;19.50;99.90
21950;DHT22;11139;51.284;7.226;2023-07-29T12:48:19;19.60;99.90
21950;DHT22;11139;51.284;7.226;2023-07-29T12:50:45;19.60;99.90
21950;DHT22;11139;51.284;7.226;2023-07-29T12:53:10;19.60;99.90
21950;DHT22;11139;51.284;7.226;2023-07-29T12:55:36;19.60;99.90
21950;DHT22;11139;51.284;7.226;2023-07-29T12:58:02;19.60;99.90
21950;DHT22;11139;51.284;7.226;2023-07-29T13:00:27;19.50;99.90
21950;DHT22;11139;51.284;7.226;2023-07-29T13:02:53;19.50;99.90
21950;DHT22;11139;51.284;7.226;2023-07-29T13:05:19;19.60;99.90
21950;DHT22;11139;51.284;7.226;2023-07-29T13:07:44;19.50;99.90
21950;DHT22;11139;51.284;7.226;2023-07-29T13:10:10;19.50;99.90
21950;DHT22;11139;51.284;7.226;2023-07-29T13:12:36;19.50;99.90
21950;DHT22;11139;51.284;7.226;2023-07-29T13:15:01;19.50;99.90
21950;DHT22;11139;51.284;7.226;2023-07-29T13:17:27;19.50;99.90
21950;DHT22;11139;51.284;7.226;2023-07-29T13:19:52;19.50;99.90
21950;DHT22;11139;51.284;7.226;2023-07-29T13:22:19;19.60;99.90
21950;DHT22;11139;51.284;7.226;2023-07-29T13:24:44;19.50;99.90
21950;DHT22;11139;51.284;7.226;2023-07-29T13:27:10;19.50;99.90
21950;DHT22;11139;51.284;7.226;2023-07-29T13:29:35;19.50;99.90
21950;DHT22;11139;51.284;7.226;2023-07-29T13:32:01;19.50;99.90
21950;DHT22;11139;51.284;7.226;2023-07-29T13:34:26;19.50;99.90
21950;DHT22;11139;51.284;7.226;2023-07-29T13:36:52;19.50;99.90
21950;DHT22;11139;51.284;7.226;2023-07-29T13:39:18;19.50;99.90
21950;DHT22;11139;51.284;7.226;2023-07-29T13:41:43;19.50;99.90
21950;DHT22;11139;51.284;7.226;2023-07-29T13:44:09;19.50;99.90
21950;DHT22;11139;51.284;7.226;2023-07-29T13:46:34;19.50;99.90
21950;DHT22;11139;51.284;7.226;2023-07-29T13:49:00;19.40;99.90
21950;DHT22;11139;51.284;7.226;2023-07-29T13:51:26;19.40;99.90
21950;DHT22;11139;51.284;7.226;2023-07-29T13:53:52;19.40;99.90
21950;DHT22;11139;51.284;7.226;2023-07-29T13:56:17;19.40;99.90
21950;DHT22;11139;51.284;7.226;2023-07-29T13:58:42;19.40;99.90
21950;DHT22;11139;51.284;7.226;2023-07-29T14:01:08;19.40;99.90
21950;DHT22;11139;51.284;7.226;2023-07-29T14:03:33;19.40;99.90
21950;DHT22;11139;51.284;7.226;2023-07-29T14:05:59;19.40;99.90
21950;DHT22;11139;51.284;7.226;2023-07-29T14:08:24;19.40;99.90
21950;DHT22;11139;51.284;7.226;2023-07-29T14:10:50;19.40;99.90
21950;DHT22;11139;51.284;7.226;2023-07-29T14:13:15;19.40;99.90
21950;DHT22;11139;51.284;7.226;2023-07-29T14:15:41;19.40;99.90
21950;DHT22;11139;51.284;7.226;2023-07-29T14:18:06;19.40;99.90
21950;DHT22;11139;51.284;7.226;2023-07-29T14:20:32;19.40;99.90
21950;DHT22;11139;51.284;7.226;2023-07-29T14:22:58;19.40;99.90
21950;DHT22;11139;51.284;7.226;2023-07-29T14:25:23;19.40;99.90
21950;DHT22;11139;51.284;7.226;2023-07-29T14:27:49;19.40;99.90
21950;DHT22;11139;51.284;7.226;2023-07-29T14:30:14;19.40;99.90
21950;DHT22;11139;51.284;7.226;2023-07-29T14:32:40;19.40;99.90
21950;DHT22;11139;51.284;7.226;2023-07-29T14:35:05;19.40;99.90
21950;DHT22;11139;51.284;7.226;2023-07-29T14:37:32;19.40;99.90
21950;DHT22;11139;51.284;7.226;2023-07-29T14:39:58;19.40;99.90
21950;DHT22;11139;51.284;7.226;2023-07-29T14:42:24;19.40;99.90
21950;DHT22;11139;51.284;7.226;2023-07-29T14:44:49;19.40;99.90
21950;DHT22;11139;51.284;7.226;2023-07-29T14:47:15;19.50;99.90
21950;DHT22;11139;51.284;7.226;2023-07-29T14:49:40;19.50;99.90
21950;DHT22;11139;51.284;7.226;2023-07-29T14:52:06;19.40;99.90
21950;DHT22;11139;51.284;7.226;2023-07-29T14:54:32;19.50;99.90
21950;DHT22;11139;51.284;7.226;2023-07-29T14:56:57;19.40;99.90
21950;DHT22;11139;51.284;7.226;2023-07-29T14:59:23;19.50;99.90
21950;DHT22;11139;51.284;7.226;2023-07-29T15:01:48;19.50;99.90
21950;DHT22;11139;51.284;7.226;2023-07-29T15:04:14;19.60;99.90
21950;DHT22;11139;51.284;7.226;2023-07-29T15:06:39;19.60;99.90
21950;DHT22;11139;51.284;7.226;2023-07-29T15:09:05;19.60;99.90
21950;DHT22;11139;51.284;7.226;2023-07-29T15:11:31;19.60;99.90
21950;DHT22;11139;51.284;7.226;2023-07-29T15:13:58;19.60;99.90
21950;DHT22;11139;51.284;7.226;2023-07-29T15:16:24;19.60;99.90
21950;DHT22;11139;51.284;7.226;2023-07-29T15:18:50;19.60;99.90
21950;DHT22;11139;51.284;7.226;2023-07-29T15:21:15;19.60;99.90
21950;DHT22;11139;51.284;7.226;2023-07-29T15:23:41;19.60;99.90
21950;DHT22;11139;51.284;7.226;2023-07-29T15:26:07;19.60;99.90
21950;DHT22;11139;51.284;7.226;2023-07-29T15:28:33;19.60;99.90
21950;DHT22;11139;51.284;7.226;2023-07-29T15:30:58;19.60;99.90
21950;DHT22;11139;51.284;7.226;2023-07-29T15:33:23;19.60;99.90
21950;DHT22;11139;51.284;7.226;2023-07-29T15:35:49;19.70;99.90